sensor_id;sensor_type;location;lat;lon;timestamp;temperature;humidity
2391;DHT22;22957;50.824;4.360;2023-06-04T00:00:29;16.90;75.10
2391;DHT22;22957;50.824;4.360;2023-06-04T00:02:55;16.70;75.60
2391;DHT22;22957;50.824;4.360;2023-06-04T00:05:20;16.80;75.70
2391;DHT22;22957;50.824;4.360;2023-06-04T00:07:47;16.80;76.20
2391;DHT22;22957;50.824;4.360;2023-06-04T00:10:13;16.60;76.60
2391;DHT22;22957;50.824;4.360;2023-06-04T00:12:38;16.50;77.30
2391;DHT22;22957;50.824;4.360;2023-06-04T00:15:04;17.00;77.80
2391;DHT22;22957;50.824;4.360;2023-06-04T00:17:30;16.20;77.10
2391;DHT22;22957;50.824;4.360;2023-06-04T00:19:56;16.20;78.10
2391;DHT22;22957;50.824;4.360;2023-06-04T00:22:21;16.20;78.00
2391;DHT22;22957;50.824;4.360;2023-06-04T00:24:47;16.00;77.80
2391;DHT22;22957;50.824;4.360;2023-06-04T00:27:12;16.10;77.80
2391;DHT22;22957;50.824;4.360;2023-06-04T00:29:38;16.10;78.60
2391;DHT22;22957;50.824;4.360;2023-06-04T00:32:04;16.60;78.30
2391;DHT22;22957;50.824;4.360;2023-06-04T00:34:29;16.30;79.10
2391;DHT22;22957;50.824;4.360;2023-06-04T00:36:55;16.30;78.30
2391;DHT22;22957;50.824;4.360;2023-06-04T00:39:21;15.70;78.70
2391;DHT22;22957;50.824;4.360;2023-06-04T00:41:46;16.10;78.40
2391;DHT22;22957;50.824;4.360;2023-06-04T00:44:12;16.30;77.60
2391;DHT22;22957;50.824;4.360;2023-06-04T00:46:38;16.60;79.20
2391;DHT22;22957;50.824;4.360;2023-06-04T00:49:05;16.30;79.20
2391;DHT22;22957;50.824;4.360;2023-06-04T00:51:32;16.10;77.80
2391;DHT22;22957;50.824;4.360;2023-06-04T00:53:58;16.90;78.10
2391;DHT22;22957;50.824;4.360;2023-06-04T00:56:24;16.50;78.00
2391;DHT22;22957;50.824;4.360;2023-06-04T00:58:50;16.80;78.40
2391;DHT22;22957;50.824;4.360;2023-06-04T01:01:37;16.90;78.10
2391;DHT22;22957;50.824;4.360;2023-06-04T01:04:11;16.50;78.30
2391;DHT22;22957;50.824;4.360;2023-06-04T01:06:44;16.80;78.30
2391;DHT22;22957;50.824;4.360;2023-06-04T01:09:10;16.80;78.70
2391;DHT22;22957;50.824;4.360;2023-06-04T01:11:39;16.20;80.40
2391;DHT22;22957;50.824;4.360;2023-06-04T01:14:07;16.10;80.20
2391;DHT22;22957;50.824;4.360;2023-06-04T01:16:42;15.90;80.00
2391;DHT22;22957;50.824;4.360;2023-06-04T01:25:25;16.20;80.50
2391;DHT22;22957;50.824;4.360;2023-06-04T01:27:54;16.30;80.30
2391;DHT22;22957;50.824;4.360;2023-06-04T01:30:30;16.50;80.90
2391;DHT22;22957;50.824;4.360;2023-06-04T01:32:57;15.70;80.70
2391;DHT22;22957;50.824;4.360;2023-06-04T01:35:23;15.80;82.00
2391;DHT22;22957;50.824;4.360;2023-06-04T01:37:49;16.10;81.60
2391;DHT22;22957;50.824;4.360;2023-06-04T01:40:15;16.40;80.40
2391;DHT22;22957;50.824;4.360;2023-06-04T01:42:44;16.10;81.30
2391;DHT22;22957;50.824;4.360;2023-06-04T01:45:10;15.40;83.70
2391;DHT22;22957;50.824;4.360;2023-06-04T01:47:36;15.30;83.10
2391;DHT22;22957;50.824;4.360;2023-06-04T01:50:03;15.70;84.80
2391;DHT22;22957;50.824;4.360;2023-06-04T01:52:29;16.00;84.40
2391;DHT22;22957;50.824;4.360;2023-06-04T01:54:55;15.30;85.00
2391;DHT22;22957;50.824;4.360;2023-06-04T01:57:21;15.30;84.60
2391;DHT22;22957;50.824;4.360;2023-06-04T01:59:47;15.60;86.10
2391;DHT22;22957;50.824;4.360;2023-06-04T02:02:14;15.50;85.40
2391;DHT22;22957;50.824;4.360;2023-06-04T02:04:39;15.20;86.30
2391;DHT22;22957;50.824;4.360;2023-06-04T02:07:11;15.50;86.10
2391;DHT22;22957;50.824;4.360;2023-06-04T02:09:39;15.00;87.00
2391;DHT22;22957;50.824;4.360;2023-06-04T02:12:06;15.50;87.30
2391;DHT22;22957;50.824;4.360;2023-06-04T02:14:31;15.20;90.10
2391;DHT22;22957;50.824;4.360;2023-06-04T02:16:57;14.80;89.60
2391;DHT22;22957;50.824;4.360;2023-06-04T02:19:26;14.50;90.00
2391;DHT22;22957;50.824;4.360;2023-06-04T02:21:55;15.10;91.00
2391;DHT22;22957;50.824;4.360;2023-06-04T02:24:21;15.10;90.50
2391;DHT22;22957;50.824;4.360;2023-06-04T02:26:47;15.70;90.20
2391;DHT22;22957;50.824;4.360;2023-06-04T02:29:13;15.40;90.30
2391;DHT22;22957;50.824;4.360;2023-06-04T02:31:38;14.90;90.90
2391;DHT22;22957;50.824;4.360;2023-06-04T02:34:04;14.30;91.20
2391;DHT22;22957;50.824;4.360;2023-06-04T02:36:29;14.80;91.20
2391;DHT22;22957;50.824;4.360;2023-06-04T02:38:55;15.10;92.00
2391;DHT22;22957;50.824;4.360;2023-06-04T02:41:21;14.30;92.00
2391;DHT22;22957;50.824;4.360;2023-06-04T02:43:47;14.50;92.20
2391;DHT22;22957;50.824;4.360;2023-06-04T02:46:13;14.60;91.90
2391;DHT22;22957;50.824;4.360;2023-06-04T02:48:38;14.70;92.00
2391;DHT22;22957;50.824;4.360;2023-06-04T02:51:04;15.00;91.90
2391;DHT22;22957;50.824;4.360;2023-06-04T02:53:30;14.70;92.40
2391;DHT22;22957;50.824;4.360;2023-06-04T02:55:56;14.20;93.50
2391;DHT22;22957;50.824;4.360;2023-06-04T02:58:22;14.10;93.40
2391;DHT22;22957;50.824;4.360;2023-06-04T03:00:52;13.90;94.40
2391;DHT22;22957;50.824;4.360;2023-06-04T03:03:17;14.10;94.40
2391;DHT22;22957;50.824;4.360;2023-06-04T03:05:43;14.00;93.90
2391;DHT22;22957;50.824;4.360;2023-06-04T03:08:08;13.80;95.10
2391;DHT22;22957;50.824;4.360;2023-06-04T03:10:34;14.50;94.50
2391;DHT22;22957;50.824;4.360;2023-06-04T03:12:59;14.30;94.50
2391;DHT22;22957;50.824;4.360;2023-06-04T03:15:25;13.70;95.40
2391;DHT22;22957;50.824;4.360;2023-06-04T03:17:51;14.00;96.00
2391;DHT22;22957;50.824;4.360;2023-06-04T03:20:17;14.00;96.20
2391;DHT22;22957;50.824;4.360;2023-06-04T03:22:42;14.20;95.00
2391;DHT22;22957;50.824;4.360;2023-06-04T03:25:08;14.30;95.50
2391;DHT22;22957;50.824;4.360;2023-06-04T03:27:34;14.40;95.80
2391;DHT22;22957;50.824;4.360;2023-06-04T03:30:00;14.80;96.30
2391;DHT22;22957;50.824;4.360;2023-06-04T03:32:25;14.30;95.80
2391;DHT22;22957;50.824;4.360;2023-06-04T03:34:51;14.20;96.60
2391;DHT22;22957;50.824;4.360;2023-06-04T03:37:17;14.40;96.10
2391;DHT22;22957;50.824;4.360;2023-06-04T03:39:42;13.80;97.60
2391;DHT22;22957;50.824;4.360;2023-06-04T03:42:08;14.10;98.30
2391;DHT22;22957;50.824;4.360;2023-06-04T03:44:34;15.10;97.10
2391;DHT22;22957;50.824;4.360;2023-06-04T03:47:00;14.40;97.60
2391;DHT22;22957;50.824;4.360;2023-06-04T03:49:25;14.00;99.00
2391;DHT22;22957;50.824;4.360;2023-06-04T03:51:51;14.40;99.00
2391;DHT22;22957;50.824;4.360;2023-06-04T03:54:17;14.70;98.70
2391;DHT22;22957;50.824;4.360;2023-06-04T03:56:45;14.10;99.50
2391;DHT22;22957;50.824;4.360;2023-06-04T03:59:10;13.90;99.90
2391;DHT22;22957;50.824;4.360;2023-06-04T04:01:36;13.90;99.90
2391;DHT22;22957;50.824;4.360;2023-06-04T04:04:01;13.60;99.90
2391;DHT22;22957;50.824;4.360;2023-06-04T04:06:27;13.60;99.90
2391;DHT22;22957;50.824;4.360;2023-06-04T04:08:52;13.20;99.90
2391;DHT22;22957;50.824;4.360;2023-06-04T04:11:19;13.60;99.90
2391;DHT22;22957;50.824;4.360;2023-06-04T04:13:45;14.00;99.90
2391;DHT22;22957;50.824;4.360;2023-06-04T04:16:11;13.80;99.90
2391;DHT22;22957;50.824;4.360;2023-06-04T04:18:37;14.20;99.90
2391;DHT22;22957;50.824;4.360;2023-06-04T04:21:04;13.60;99.90
2391;DHT22;22957;50.824;4.360;2023-06-04T04:23:30;13.70;99.90
2391;DHT22;22957;50.824;4.360;2023-06-04T04:25:58;14.00;99.90
2391;DHT22;22957;50.824;4.360;2023-06-04T04:28:24;13.90;99.90
2391;DHT22;22957;50.824;4.360;2023-06-04T04:30:55;14.40;99.90
2391;DHT22;22957;50.824;4.360;2023-06-04T04:33:25;14.10;99.90
2391;DHT22;22957;50.824;4.360;2023-06-04T04:35:51;14.20;99.90
2391;DHT22;22957;50.824;4.360;2023-06-04T04:38:19;13.70;99.90
2391;DHT22;22957;50.824;4.360;2023-06-04T04:40:45;13.80;99.90
2391;DHT22;22957;50.824;4.360;2023-06-04T04:43:13;13.70;99.90
2391;DHT22;22957;50.824;4.360;2023-06-04T04:45:38;14.10;99.90
2391;DHT22;22957;50.824;4.360;2023-06-04T04:48:04;14.00;99.90
2391;DHT22;22957;50.824;4.360;2023-06-04T04:50:30;14.20;99.90
2391;DHT22;22957;50.824;4.360;2023-06-04T04:52:57;14.70;99.90
2391;DHT22;22957;50.824;4.360;2023-06-04T04:55:23;14.70;99.90
2391;DHT22;22957;50.824;4.360;2023-06-04T04:57:48;16.20;99.90
2391;DHT22;22957;50.824;4.360;2023-06-04T05:00:14;15.80;99.90
2391;DHT22;22957;50.824;4.360;2023-06-04T05:02:41;15.20;99.90
2391;DHT22;22957;50.824;4.360;2023-06-04T05:05:06;14.40;99.90
2391;DHT22;22957;50.824;4.360;2023-06-04T05:07:32;15.80;99.90
2391;DHT22;22957;50.824;4.360;2023-06-04T05:09:58;15.00;99.90
2391;DHT22;22957;50.824;4.360;2023-06-04T05:12:25;14.00;99.90
2391;DHT22;22957;50.824;4.360;2023-06-04T05:14:51;14.70;99.90
2391;DHT22;22957;50.824;4.360;2023-06-04T05:17:17;15.80;99.90
2391;DHT22;22957;50.824;4.360;2023-06-04T05:19:46;15.00;99.90
2391;DHT22;22957;50.824;4.360;2023-06-04T05:22:12;14.10;99.90
2391;DHT22;22957;50.824;4.360;2023-06-04T05:24:41;15.50;99.90
2391;DHT22;22957;50.824;4.360;2023-06-04T05:27:06;15.40;99.90
2391;DHT22;22957;50.824;4.360;2023-06-04T05:29:34;16.20;99.90
2391;DHT22;22957;50.824;4.360;2023-06-04T05:32:00;14.80;99.90
2391;DHT22;22957;50.824;4.360;2023-06-04T05:34:26;14.40;99.90
2391;DHT22;22957;50.824;4.360;2023-06-04T05:36:52;14.00;99.90
2391;DHT22;22957;50.824;4.360;2023-06-04T05:39:18;13.80;99.90
2391;DHT22;22957;50.824;4.360;2023-06-04T05:41:44;15.20;99.90
2391;DHT22;22957;50.824;4.360;2023-06-04T05:44:10;16.90;99.90
2391;DHT22;22957;50.824;4.360;2023-06-04T05:46:36;17.20;99.90
2391;DHT22;22957;50.824;4.360;2023-06-04T05:49:02;16.40;99.90
2391;DHT22;22957;50.824;4.360;2023-06-04T05:51:27;17.00;99.90
2391;DHT22;22957;50.824;4.360;2023-06-04T05:53:54;17.90;99.40
2391;DHT22;22957;50.824;4.360;2023-06-04T05:56:20;16.30;99.90
2391;DHT22;22957;50.824;4.360;2023-06-04T05:58:51;16.80;99.90
2391;DHT22;22957;50.824;4.360;2023-06-04T06:01:17;18.80;99.60
2391;DHT22;22957;50.824;4.360;2023-06-04T06:03:43;17.00;97.70
2391;DHT22;22957;50.824;4.360;2023-06-04T06:06:08;17.20;99.10
2391;DHT22;22957;50.824;4.360;2023-06-04T06:08:35;20.00;96.20
2391;DHT22;22957;50.824;4.360;2023-06-04T06:11:01;19.20;94.70
2391;DHT22;22957;50.824;4.360;2023-06-04T06:13:29;19.10;95.00
2391;DHT22;22957;50.824;4.360;2023-06-04T06:15:55;20.80;94.00
2391;DHT22;22957;50.824;4.360;2023-06-04T06:18:21;17.60;95.90
2391;DHT22;22957;50.824;4.360;2023-06-04T06:20:46;18.30;97.50
2391;DHT22;22957;50.824;4.360;2023-06-04T06:23:12;16.50;96.20
2391;DHT22;22957;50.824;4.360;2023-06-04T06:25:37;16.50;99.20
2391;DHT22;22957;50.824;4.360;2023-06-04T06:28:06;18.10;96.50
2391;DHT22;22957;50.824;4.360;2023-06-04T06:30:31;19.30;94.60
2391;DHT22;22957;50.824;4.360;2023-06-04T06:32:57;18.20;96.10
2391;DHT22;22957;50.824;4.360;2023-06-04T06:35:23;17.80;95.40
2391;DHT22;22957;50.824;4.360;2023-06-04T06:37:48;17.00;97.50
2391;DHT22;22957;50.824;4.360;2023-06-04T06:40:14;16.90;98.40
2391;DHT22;22957;50.824;4.360;2023-06-04T06:42:40;17.30;95.90
2391;DHT22;22957;50.824;4.360;2023-06-04T06:45:06;16.40;97.00
2391;DHT22;22957;50.824;4.360;2023-06-04T06:47:31;17.00;98.00
2391;DHT22;22957;50.824;4.360;2023-06-04T06:49:57;16.00;98.70
2391;DHT22;22957;50.824;4.360;2023-06-04T06:52:22;16.60;98.60
2391;DHT22;22957;50.824;4.360;2023-06-04T06:54:48;18.70;96.90
2391;DHT22;22957;50.824;4.360;2023-06-04T06:57:14;18.30;95.30
2391;DHT22;22957;50.824;4.360;2023-06-04T06:59:40;18.10;95.40
2391;DHT22;22957;50.824;4.360;2023-06-04T07:02:06;18.90;94.70
2391;DHT22;22957;50.824;4.360;2023-06-04T07:04:32;20.90;93.10
2391;DHT22;22957;50.824;4.360;2023-06-04T07:06:58;21.30;91.00
2391;DHT22;22957;50.824;4.360;2023-06-04T07:09:23;19.40;91.40
2391;DHT22;22957;50.824;4.360;2023-06-04T07:11:49;17.60;93.40
2391;DHT22;22957;50.824;4.360;2023-06-04T07:14:14;18.40;93.90
2391;DHT22;22957;50.824;4.360;2023-06-04T07:16:40;17.70;94.30
2391;DHT22;22957;50.824;4.360;2023-06-04T07:19:06;18.70;94.30
2391;DHT22;22957;50.824;4.360;2023-06-04T07:21:31;19.90;93.30
2391;DHT22;22957;50.824;4.360;2023-06-04T07:23:57;19.10;91.60
2391;DHT22;22957;50.824;4.360;2023-06-04T07:26:22;19.70;92.30
2391;DHT22;22957;50.824;4.360;2023-06-04T07:28:50;20.30;92.70
2391;DHT22;22957;50.824;4.360;2023-06-04T07:31:16;20.60;91.50
2391;DHT22;22957;50.824;4.360;2023-06-04T07:33:42;21.10;90.10
2391;DHT22;22957;50.824;4.360;2023-06-04T07:36:12;20.40;91.20
2391;DHT22;22957;50.824;4.360;2023-06-04T07:38:38;21.80;90.70
2391;DHT22;22957;50.824;4.360;2023-06-04T07:41:03;22.20;85.60
2391;DHT22;22957;50.824;4.360;2023-06-04T07:43:29;23.50;86.20
2391;DHT22;22957;50.824;4.360;2023-06-04T07:45:55;21.30;85.80
2391;DHT22;22957;50.824;4.360;2023-06-04T07:48:20;21.10;87.00
2391;DHT22;22957;50.824;4.360;2023-06-04T07:50:46;19.30;90.30
2391;DHT22;22957;50.824;4.360;2023-06-04T07:53:11;20.80;90.10
2391;DHT22;22957;50.824;4.360;2023-06-04T07:55:37;18.80;91.10
2391;DHT22;22957;50.824;4.360;2023-06-04T07:58:02;20.50;90.00
2391;DHT22;22957;50.824;4.360;2023-06-04T08:00:28;19.90;88.70
2391;DHT22;22957;50.824;4.360;2023-06-04T08:02:54;20.20;91.10
2391;DHT22;22957;50.824;4.360;2023-06-04T08:05:20;20.50;90.00
2391;DHT22;22957;50.824;4.360;2023-06-04T08:07:46;19.90;88.80
2391;DHT22;22957;50.824;4.360;2023-06-04T08:10:12;19.30;90.40
2391;DHT22;22957;50.824;4.360;2023-06-04T08:12:38;19.80;89.90
2391;DHT22;22957;50.824;4.360;2023-06-04T08:15:04;20.40;88.90
2391;DHT22;22957;50.824;4.360;2023-06-04T08:17:31;21.60;87.80
2391;DHT22;22957;50.824;4.360;2023-06-04T08:19:56;20.90;84.00
2391;DHT22;22957;50.824;4.360;2023-06-04T08:22:22;21.80;86.80
2391;DHT22;22957;50.824;4.360;2023-06-04T08:24:47;22.00;80.10
2391;DHT22;22957;50.824;4.360;2023-06-04T08:27:13;22.30;76.90
2391;DHT22;22957;50.824;4.360;2023-06-04T08:29:38;23.10;80.70
2391;DHT22;22957;50.824;4.360;2023-06-04T08:32:05;21.50;81.40
2391;DHT22;22957;50.824;4.360;2023-06-04T08:34:32;19.70;85.40
2391;DHT22;22957;50.824;4.360;2023-06-04T08:36:58;20.30;87.60
2391;DHT22;22957;50.824;4.360;2023-06-04T08:39:24;21.80;85.00
2391;DHT22;22957;50.824;4.360;2023-06-04T08:41:52;22.00;84.10
2391;DHT22;22957;50.824;4.360;2023-06-04T08:44:18;23.00;82.50
2391;DHT22;22957;50.824;4.360;2023-06-04T08:46:44;21.90;81.60
2391;DHT22;22957;50.824;4.360;2023-06-04T08:49:12;23.30;81.30
2391;DHT22;22957;50.824;4.360;2023-06-04T08:51:38;23.10;80.10
2391;DHT22;22957;50.824;4.360;2023-06-04T08:54:08;23.80;77.50
2391;DHT22;22957;50.824;4.360;2023-06-04T08:56:34;23.80;76.30
2391;DHT22;22957;50.824;4.360;2023-06-04T08:59:03;22.50;78.50
2391;DHT22;22957;50.824;4.360;2023-06-04T09:01:32;24.80;76.90
2391;DHT22;22957;50.824;4.360;2023-06-04T09:04:01;23.90;74.20
2391;DHT22;22957;50.824;4.360;2023-06-04T09:06:27;22.00;78.20
2391;DHT22;22957;50.824;4.360;2023-06-04T09:08:56;22.90;76.50
2391;DHT22;22957;50.824;4.360;2023-06-04T09:11:24;25.60;75.60
2391;DHT22;22957;50.824;4.360;2023-06-04T09:13:53;23.30;71.50
2391;DHT22;22957;50.824;4.360;2023-06-04T09:16:18;23.20;74.70
2391;DHT22;22957;50.824;4.360;2023-06-04T09:18:44;21.40;75.80
2391;DHT22;22957;50.824;4.360;2023-06-04T09:21:10;24.10;76.10
2391;DHT22;22957;50.824;4.360;2023-06-04T09:23:46;25.40;70.80
2391;DHT22;22957;50.824;4.360;2023-06-04T09:26:13;23.20;71.70
2391;DHT22;22957;50.824;4.360;2023-06-04T09:28:42;22.30;73.90
2391;DHT22;22957;50.824;4.360;2023-06-04T09:31:09;22.90;71.30
2391;DHT22;22957;50.824;4.360;2023-06-04T09:33:50;23.40;72.20
2391;DHT22;22957;50.824;4.360;2023-06-04T09:36:17;24.00;70.60
2391;DHT22;22957;50.824;4.360;2023-06-04T09:38:42;23.70;69.10
2391;DHT22;22957;50.824;4.360;2023-06-04T09:41:16;23.10;70.80
2391;DHT22;22957;50.824;4.360;2023-06-04T09:43:42;23.90;71.60
2391;DHT22;22957;50.824;4.360;2023-06-04T09:46:16;24.40;71.30
2391;DHT22;22957;50.824;4.360;2023-06-04T09:48:43;25.00;68.20
2391;DHT22;22957;50.824;4.360;2023-06-04T09:51:14;24.60;67.00
2391;DHT22;22957;50.824;4.360;2023-06-04T09:53:57;21.50;69.00
2391;DHT22;22957;50.824;4.360;2023-06-04T09:56:23;21.80;69.40
2391;DHT22;22957;50.824;4.360;2023-06-04T09:58:49;20.90;71.70
2391;DHT22;22957;50.824;4.360;2023-06-04T10:01:15;22.70;72.60
2391;DHT22;22957;50.824;4.360;2023-06-04T10:03:47;22.50;71.90
2391;DHT22;22957;50.824;4.360;2023-06-04T10:06:15;22.90;73.50
2391;DHT22;22957;50.824;4.360;2023-06-04T10:08:43;23.00;72.30
2391;DHT22;22957;50.824;4.360;2023-06-04T10:11:11;23.00;70.60
2391;DHT22;22957;50.824;4.360;2023-06-04T10:13:53;23.50;69.40
2391;DHT22;22957;50.824;4.360;2023-06-04T10:16:19;22.70;70.00
2391;DHT22;22957;50.824;4.360;2023-06-04T10:18:46;24.40;70.00
2391;DHT22;22957;50.824;4.360;2023-06-04T10:21:13;26.30;66.80
2391;DHT22;22957;50.824;4.360;2023-06-04T10:23:40;24.20;69.50
2391;DHT22;22957;50.824;4.360;2023-06-04T10:26:07;24.00;67.40
2391;DHT22;22957;50.824;4.360;2023-06-04T10:28:34;25.10;64.40
2391;DHT22;22957;50.824;4.360;2023-06-04T10:31:00;23.90;65.90
2391;DHT22;22957;50.824;4.360;2023-06-04T10:33:26;23.60;67.60
2391;DHT22;22957;50.824;4.360;2023-06-04T10:35:54;24.20;62.30
2391;DHT22;22957;50.824;4.360;2023-06-04T10:38:21;22.40;65.40
2391;DHT22;22957;50.824;4.360;2023-06-04T10:40:47;22.10;66.20
2391;DHT22;22957;50.824;4.360;2023-06-04T10:43:14;24.40;66.70
2391;DHT22;22957;50.824;4.360;2023-06-04T10:45:41;24.20;65.90
2391;DHT22;22957;50.824;4.360;2023-06-04T10:48:09;22.80;66.30
2391;DHT22;22957;50.824;4.360;2023-06-04T10:50:47;24.40;66.70
2391;DHT22;22957;50.824;4.360;2023-06-04T10:53:13;23.30;64.70
2391;DHT22;22957;50.824;4.360;2023-06-04T10:55:46;25.70;64.60
2391;DHT22;22957;50.824;4.360;2023-06-04T10:58:12;24.70;63.30
2391;DHT22;22957;50.824;4.360;2023-06-04T11:00:43;25.30;64.10
2391;DHT22;22957;50.824;4.360;2023-06-04T11:03:12;24.70;63.30
2391;DHT22;22957;50.824;4.360;2023-06-04T11:05:44;25.40;64.60
2391;DHT22;22957;50.824;4.360;2023-06-04T11:08:11;24.90;59.20
2391;DHT22;22957;50.824;4.360;2023-06-04T11:10:43;23.90;62.20
2391;DHT22;22957;50.824;4.360;2023-06-04T11:13:09;23.10;66.60
2391;DHT22;22957;50.824;4.360;2023-06-04T11:15:45;24.10;64.50
2391;DHT22;22957;50.824;4.360;2023-06-04T11:18:16;23.10;61.80
2391;DHT22;22957;50.824;4.360;2023-06-04T11:20:44;22.30;62.10
2391;DHT22;22957;50.824;4.360;2023-06-04T11:23:11;23.10;64.00
2391;DHT22;22957;50.824;4.360;2023-06-04T11:25:37;23.50;64.50
2391;DHT22;22957;50.824;4.360;2023-06-04T11:28:03;24.70;66.80
2391;DHT22;22957;50.824;4.360;2023-06-04T11:30:28;26.30;64.30
2391;DHT22;22957;50.824;4.360;2023-06-04T11:33:04;26.50;63.50
2391;DHT22;22957;50.824;4.360;2023-06-04T11:35:30;25.80;59.20
2391;DHT22;22957;50.824;4.360;2023-06-04T11:37:57;25.40;61.90
2391;DHT22;22957;50.824;4.360;2023-06-04T11:40:24;25.90;60.10
2391;DHT22;22957;50.824;4.360;2023-06-04T11:42:50;25.60;58.00
2391;DHT22;22957;50.824;4.360;2023-06-04T11:45:18;24.00;58.20
2391;DHT22;22957;50.824;4.360;2023-06-04T11:47:52;24.40;58.20
2391;DHT22;22957;50.824;4.360;2023-06-04T11:50:19;23.20;59.40
2391;DHT22;22957;50.824;4.360;2023-06-04T11:52:45;22.80;60.00
2391;DHT22;22957;50.824;4.360;2023-06-04T11:55:12;22.90;59.90
2391;DHT22;22957;50.824;4.360;2023-06-04T11:57:39;22.40;61.40
2391;DHT22;22957;50.824;4.360;2023-06-04T12:00:07;24.20;62.20
2391;DHT22;22957;50.824;4.360;2023-06-04T12:02:55;25.00;60.50
2391;DHT22;22957;50.824;4.360;2023-06-04T12:05:23;23.90;59.30
2391;DHT22;22957;50.824;4.360;2023-06-04T12:07:50;24.90;61.00
2391;DHT22;22957;50.824;4.360;2023-06-04T12:10:17;23.20;59.70
2391;DHT22;22957;50.824;4.360;2023-06-04T12:12:43;22.80;61.30
2391;DHT22;22957;50.824;4.360;2023-06-04T12:15:09;22.70;60.70
2391;DHT22;22957;50.824;4.360;2023-06-04T12:17:36;22.70;59.90
2391;DHT22;22957;50.824;4.360;2023-06-04T12:20:02;23.90;60.90
2391;DHT22;22957;50.824;4.360;2023-06-04T12:22:30;22.90;62.60
2391;DHT22;22957;50.824;4.360;2023-06-04T12:24:57;24.10;62.50
2391;DHT22;22957;50.824;4.360;2023-06-04T12:27:24;23.90;63.00
2391;DHT22;22957;50.824;4.360;2023-06-04T12:30:01;23.70;59.20
2391;DHT22;22957;50.824;4.360;2023-06-04T12:32:28;23.30;61.10
2391;DHT22;22957;50.824;4.360;2023-06-04T12:34:55;24.40;60.70
2391;DHT22;22957;50.824;4.360;2023-06-04T12:37:22;24.70;62.00
2391;DHT22;22957;50.824;4.360;2023-06-04T12:39:50;24.00;59.30
2391;DHT22;22957;50.824;4.360;2023-06-04T12:42:17;24.60;59.00
2391;DHT22;22957;50.824;4.360;2023-06-04T12:44:44;24.00;61.50
2391;DHT22;22957;50.824;4.360;2023-06-04T12:47:10;25.40;59.70
2391;DHT22;22957;50.824;4.360;2023-06-04T12:49:36;25.10;58.30
2391;DHT22;22957;50.824;4.360;2023-06-04T12:52:03;25.70;58.80
2391;DHT22;22957;50.824;4.360;2023-06-04T12:54:29;24.20;57.90
2391;DHT22;22957;50.824;4.360;2023-06-04T12:56:56;23.20;60.50
2391;DHT22;22957;50.824;4.360;2023-06-04T12:59:22;23.40;61.60
2391;DHT22;22957;50.824;4.360;2023-06-04T13:01:48;23.80;61.80
2391;DHT22;22957;50.824;4.360;2023-06-04T13:04:14;23.70;61.10
2391;DHT22;22957;50.824;4.360;2023-06-04T13:06:40;24.00;62.30
2391;DHT22;22957;50.824;4.360;2023-06-04T13:09:06;23.40;59.00
2391;DHT22;22957;50.824;4.360;2023-06-04T13:11:38;25.10;60.10
2391;DHT22;22957;50.824;4.360;2023-06-04T13:14:04;24.50;59.40
2391;DHT22;22957;50.824;4.360;2023-06-04T13:16:30;23.90;60.00
2391;DHT22;22957;50.824;4.360;2023-06-04T13:18:56;25.40;60.40
2391;DHT22;22957;50.824;4.360;2023-06-04T13:21:21;25.50;58.70
2391;DHT22;22957;50.824;4.360;2023-06-04T13:23:47;24.70;57.70
2391;DHT22;22957;50.824;4.360;2023-06-04T13:26:12;24.70;58.50
2391;DHT22;22957;50.824;4.360;2023-06-04T13:28:38;24.50;58.80
2391;DHT22;22957;50.824;4.360;2023-06-04T13:31:04;24.80;59.10
2391;DHT22;22957;50.824;4.360;2023-06-04T13:33:29;23.50;58.20
2391;DHT22;22957;50.824;4.360;2023-06-04T13:35:55;24.50;59.60
2391;DHT22;22957;50.824;4.360;2023-06-04T13:38:20;23.10;59.40
2391;DHT22;22957;50.824;4.360;2023-06-04T13:40:46;24.10;59.90
2391;DHT22;22957;50.824;4.360;2023-06-04T13:43:12;24.90;59.50
2391;DHT22;22957;50.824;4.360;2023-06-04T13:45:37;25.30;58.80
2391;DHT22;22957;50.824;4.360;2023-06-04T13:48:05;24.10;58.60
2391;DHT22;22957;50.824;4.360;2023-06-04T13:50:32;24.60;58.50
2391;DHT22;22957;50.824;4.360;2023-06-04T13:52:58;24.20;57.60
2391;DHT22;22957;50.824;4.360;2023-06-04T13:55:24;24.50;59.40
2391;DHT22;22957;50.824;4.360;2023-06-04T13:57:49;26.50;57.70
2391;DHT22;22957;50.824;4.360;2023-06-04T14:00:15;26.10;57.50
2391;DHT22;22957;50.824;4.360;2023-06-04T14:02:40;25.90;57.40
2391;DHT22;22957;50.824;4.360;2023-06-04T14:05:06;24.90;57.50
2391;DHT22;22957;50.824;4.360;2023-06-04T14:07:32;25.10;58.40
2391;DHT22;22957;50.824;4.360;2023-06-04T14:09:58;24.20;57.40
2391;DHT22;22957;50.824;4.360;2023-06-04T14:12:24;25.90;57.40
2391;DHT22;22957;50.824;4.360;2023-06-04T14:14:50;25.50;56.40
2391;DHT22;22957;50.824;4.360;2023-06-04T14:17:16;24.50;57.00
2391;DHT22;22957;50.824;4.360;2023-06-04T14:19:42;25.00;57.80
2391;DHT22;22957;50.824;4.360;2023-06-04T14:22:09;25.40;57.70
2391;DHT22;22957;50.824;4.360;2023-06-04T14:24:34;25.50;57.10
2391;DHT22;22957;50.824;4.360;2023-06-04T14:27:00;26.00;54.80
2391;DHT22;22957;50.824;4.360;2023-06-04T14:29:26;25.80;54.80
2391;DHT22;22957;50.824;4.360;2023-06-04T14:31:51;25.00;56.20
2391;DHT22;22957;50.824;4.360;2023-06-04T14:34:17;23.30;57.10
2391;DHT22;22957;50.824;4.360;2023-06-04T14:36:42;24.40;58.10
2391;DHT22;22957;50.824;4.360;2023-06-04T14:39:08;24.60;57.70
2391;DHT22;22957;50.824;4.360;2023-06-04T14:41:33;24.00;55.70
2391;DHT22;22957;50.824;4.360;2023-06-04T14:43:59;23.90;57.40
2391;DHT22;22957;50.824;4.360;2023-06-04T14:46:25;23.70;56.60
2391;DHT22;22957;50.824;4.360;2023-06-04T14:48:51;23.60;56.70
2391;DHT22;22957;50.824;4.360;2023-06-04T14:51:16;23.90;57.60
2391;DHT22;22957;50.824;4.360;2023-06-04T14:53:42;23.90;56.20
2391;DHT22;22957;50.824;4.360;2023-06-04T14:56:07;23.80;57.00
2391;DHT22;22957;50.824;4.360;2023-06-04T14:58:33;24.50;57.20
2391;DHT22;22957;50.824;4.360;2023-06-04T15:01:00;24.90;55.80
2391;DHT22;22957;50.824;4.360;2023-06-04T15:03:26;24.60;56.30
2391;DHT22;22957;50.824;4.360;2023-06-04T15:05:52;25.00;56.10
2391;DHT22;22957;50.824;4.360;2023-06-04T15:08:19;24.20;54.60
2391;DHT22;22957;50.824;4.360;2023-06-04T15:10:45;24.10;56.80
2391;DHT22;22957;50.824;4.360;2023-06-04T15:13:11;25.20;56.20
2391;DHT22;22957;50.824;4.360;2023-06-04T15:15:36;24.40;54.70
2391;DHT22;22957;50.824;4.360;2023-06-04T15:18:02;24.60;56.00
2391;DHT22;22957;50.824;4.360;2023-06-04T15:20:27;24.80;56.30
2391;DHT22;22957;50.824;4.360;2023-06-04T15:22:54;24.80;55.90
2391;DHT22;22957;50.824;4.360;2023-06-04T15:25:20;24.40;55.40
2391;DHT22;22957;50.824;4.360;2023-06-04T15:27:46;25.30;54.70
2391;DHT22;22957;50.824;4.360;2023-06-04T15:30:12;24.10;55.40
2391;DHT22;22957;50.824;4.360;2023-06-04T15:32:37;24.50;55.70
2391;DHT22;22957;50.824;4.360;2023-06-04T15:35:06;24.60;54.50
2391;DHT22;22957;50.824;4.360;2023-06-04T15:37:31;24.80;55.40
2391;DHT22;22957;50.824;4.360;2023-06-04T15:39:57;24.50;53.90
2391;DHT22;22957;50.824;4.360;2023-06-04T15:42:25;24.50;55.20
2391;DHT22;22957;50.824;4.360;2023-06-04T15:44:50;24.70;54.20
2391;DHT22;22957;50.824;4.360;2023-06-04T15:47:16;25.00;55.10